createdAt,value
2022-12-23T00:02:02.617Z,100666.31
2022-12-23T00:04:30.649Z,100665.44
2022-12-23T00:06:58.438Z,100668.03
2022-12-23T00:09:26.262Z,100662.88
2022-12-23T00:12:07.979Z,100663.72
2022-12-23T00:14:54.427Z,100665.44
2022-12-23T00:17:23.298Z,100674.84
2022-12-23T00:19:51.439Z,100680.81
2022-12-23T00:22:19.316Z,100681.66
2022-12-23T00:24:47.145Z,100691.03
2022-12-23T00:27:14.982Z,100693.59
2022-12-23T00:29:44.348Z,100697.84
2022-12-23T00:32:12.179Z,100702.13
2022-12-23T00:34:40.088Z,100704.69
2022-12-23T00:37:07.886Z,100695.28
2022-12-23T00:39:55.070Z,100695.28
2022-12-23T00:42:40.725Z,100691.88
2022-12-23T00:45:16.435Z,100695.28
2022-12-23T00:48:02.058Z,100696.13
2022-12-23T00:50:30.332Z,100702.13
2022-12-23T00:52:58.745Z,100693.56
2022-12-23T00:55:26.767Z,100690.16
2022-12-23T00:57:54.636Z,100688.44
2022-12-23T01:00:45.598Z,100685.88
2022-12-23T01:03:33.197Z,100692.72
2022-12-23T01:06:01.545Z,100702.97
2022-12-23T01:08:29.746Z,100706.38
2022-12-23T01:10:57.605Z,100691.00
2022-12-23T01:13:25.495Z,100685.00
2022-12-23T01:16:00.156Z,100679.06
2022-12-23T01:18:28.027Z,100672.22
2022-12-23T01:20:56.028Z,100659.44
2022-12-23T01:23:23.877Z,100656.88
2022-12-23T01:25:58.281Z,100636.38
2022-12-23T01:28:26.835Z,100638.97
2022-12-23T01:30:56.346Z,100624.47
2022-12-23T01:33:24.655Z,100619.34
2022-12-23T01:35:52.549Z,100616.78
2022-12-23T01:38:20.335Z,100615.94
2022-12-23T01:40:48.349Z,100618.50
2022-12-23T01:43:16.735Z,100611.63
2022-12-23T01:45:44.879Z,100602.28
2022-12-23T01:48:18.184Z,100598.88
2022-12-23T01:50:50.081Z,100601.47
2022-12-23T01:53:20.990Z,100596.31
2022-12-23T01:55:52.903Z,100594.59
2022-12-23T01:58:25.139Z,100600.59
2022-12-23T02:01:12.866Z,100595.44
2022-12-23T02:03:45.129Z,100596.31
2022-12-23T02:06:36.926Z,100592.06
2022-12-23T02:09:18.023Z,100585.25
2022-12-23T02:12:21.615Z,100574.97
2022-12-23T02:15:28.469Z,100569.88
2022-12-23T02:18:07.303Z,100566.47
2022-12-23T02:20:55.866Z,100559.63
2022-12-23T02:23:53.867Z,100554.50
2022-12-23T02:26:57.238Z,100552.84
2022-12-23T02:29:39.355Z,100553.69
2022-12-23T02:32:15.671Z,100538.31
2022-12-23T02:34:53.929Z,100546.00
2022-12-23T02:37:29.102Z,100542.59
2022-12-23T02:40:03.960Z,100530.63
2022-12-23T02:42:37.299Z,100533.19
2022-12-23T02:45:11.233Z,100534.91
2022-12-23T02:47:44.142Z,100528.94
2022-12-23T02:50:18.186Z,100530.66
2022-12-23T02:52:49.283Z,100530.66
2022-12-23T02:55:23.300Z,100524.69
2022-12-23T02:57:55.018Z,100523.81
2022-12-23T03:00:23.757Z,100524.69
2022-12-23T03:02:53.022Z,100526.38
2022-12-23T03:05:29.883Z,100527.25
2022-12-23T03:08:02.613Z,100525.53
2022-12-23T03:10:40.803Z,100518.72
2022-12-23T03:13:19.397Z,100510.19
2022-12-23T03:15:53.475Z,100493.13
2022-12-23T03:18:33.725Z,100488.88
2022-12-23T03:21:08.030Z,100489.72
2022-12-23T03:23:42.085Z,100493.16
2022-12-23T03:26:15.624Z,100481.22
2022-12-23T03:28:48.537Z,100476.97
2022-12-23T03:31:24.496Z,100474.41
2022-12-23T03:34:00.457Z,100462.44
2022-12-23T03:36:33.261Z,100462.44
2022-12-23T03:39:04.635Z,100452.25
2022-12-23T03:41:37.037Z,100441.13
2022-12-23T03:44:10.099Z,100436.88
2022-12-23T03:46:41.971Z,100427.53
2022-12-23T03:49:14.910Z,100423.25
2022-12-23T03:51:49.832Z,100419.00
2022-12-23T03:54:22.269Z,100425.81
2022-12-23T03:56:55.792Z,100404.50
2022-12-23T03:59:33.196Z,100398.56
2022-12-23T04:02:09.981Z,100390.03
2022-12-23T04:04:51.633Z,100396.00
2022-12-23T04:07:23.688Z,100390.03
2022-12-23T04:09:53.670Z,100395.16
2022-12-23T04:12:24.356Z,100392.56
2022-12-23T04:14:52.773Z,100404.50
2022-12-23T04:17:20.999Z,100421.53
2022-12-23T04:19:50.856Z,100438.56
2022-12-23T04:22:18.778Z,100447.94
2022-12-23T04:24:46.602Z,100441.09
2022-12-23T04:27:16.244Z,100449.66
2022-12-23T04:29:44.893Z,100441.13
2022-12-23T04:32:12.717Z,100438.56
2022-12-23T04:34:40.572Z,100448.75
2022-12-23T04:37:09.735Z,100466.69
2022-12-23T04:39:37.691Z,100471.78
2022-12-23T04:42:05.452Z,100480.28
2022-12-23T04:44:33.297Z,100489.69
2022-12-23T04:47:01.199Z,100500.72
2022-12-23T04:49:29.240Z,100516.94
2022-12-23T04:51:58.377Z,100518.63
2022-12-23T04:54:27.646Z,100522.06
2022-12-23T04:56:55.442Z,100511.81
2022-12-23T04:59:23.298Z,100506.66
2022-12-23T05:01:51.250Z,100499.88
2022-12-23T05:04:19.188Z,100499.03
2022-12-23T05:06:47.078Z,100494.75
2022-12-23T05:09:14.941Z,100495.59
2022-12-23T05:11:44.149Z,100507.53
2022-12-23T05:14:12.759Z,100516.91
2022-12-23T05:16:40.959Z,100517.75
2022-12-23T05:19:09.096Z,100532.22
2022-12-23T05:21:37.037Z,100534.78
2022-12-23T05:24:05.201Z,100539.91
2022-12-23T05:26:33.039Z,100550.16
2022-12-23T05:29:02.203Z,100556.09
2022-12-23T05:31:30.516Z,100551.84
2022-12-23T05:34:04.085Z,100546.72
2022-12-23T05:36:34.040Z,100549.28
2022-12-23T05:39:01.912Z,100549.28
2022-12-23T05:41:29.957Z,100553.53
2022-12-23T05:43:57.788Z,100550.97
2022-12-23T05:46:27.465Z,100548.41
2022-12-23T05:48:55.456Z,100539.03
2022-12-23T05:51:23.403Z,100539.91
2022-12-23T05:53:51.205Z,100527.09
2022-12-23T05:56:19.062Z,100529.66
2022-12-23T05:58:46.863Z,100510.88
2022-12-23T06:01:15.813Z,100522.81
2022-12-23T06:03:45.070Z,100541.59
2022-12-23T06:06:13.040Z,100550.94
2022-12-23T06:08:40.875Z,100577.38
2022-12-23T06:11:08.740Z,100594.44
2022-12-23T06:13:36.546Z,100614.91
2022-12-23T06:16:04.800Z,100616.56
2022-12-23T06:18:32.566Z,100620.84
2022-12-23T06:21:01.917Z,100629.34
2022-12-23T06:23:29.752Z,100645.56
2022-12-23T06:26:00.659Z,100642.16
2022-12-23T06:28:29.548Z,100638.78
2022-12-23T06:30:58.110Z,100624.28
2022-12-23T06:33:26.315Z,100613.16
2022-12-23T06:35:54.185Z,100600.38
2022-12-23T06:38:23.601Z,100587.56
2022-12-23T06:40:51.408Z,100578.19
2022-12-23T06:43:19.315Z,100577.34
2022-12-23T06:45:48.556Z,100577.38
2022-12-23T06:48:17.173Z,100561.16
2022-12-23T06:50:45.785Z,100574.78
2022-12-23T06:53:14.046Z,100579.91
2022-12-23T06:55:43.299Z,100583.31
2022-12-23T06:58:11.204Z,100587.56
2022-12-23T07:00:39.024Z,100609.75
2022-12-23T07:03:06.979Z,100618.25
2022-12-23T07:05:37.348Z,100625.94
2022-12-23T07:08:06.123Z,100610.59
2022-12-23T07:10:34.845Z,100613.16
2022-12-23T07:13:04.073Z,100634.47
2022-12-23T07:15:31.898Z,100641.28
2022-12-23T07:17:59.741Z,100643.84
2022-12-23T07:20:27.565Z,100648.13
2022-12-23T07:22:55.711Z,100644.69
2022-12-23T07:25:23.971Z,100631.91
2022-12-23T07:27:54.171Z,100634.47
2022-12-23T07:30:23.823Z,100620.81
2022-12-23T07:32:52.300Z,100612.28
2022-12-23T07:35:20.251Z,100605.47
2022-12-23T07:40:44.252Z,100602.06
2022-12-23T07:43:12.175Z,100607.19
2022-12-23T07:45:41.399Z,100592.63
2022-12-23T07:48:10.188Z,100584.97
2022-12-23T07:50:38.613Z,100573.88
2022-12-23T07:53:06.514Z,100575.59
2022-12-23T07:55:34.247Z,100580.72
2022-12-23T07:58:27.010Z,100572.19
2022-12-23T08:01:02.446Z,100573.06
2022-12-23T08:03:30.649Z,100577.31
2022-12-23T08:06:03.218Z,100577.28
2022-12-23T08:08:31.404Z,100578.13
2022-12-23T08:11:00.630Z,100586.66
2022-12-23T08:13:28.905Z,100583.22
2022-12-23T08:15:58.014Z,100583.22
2022-12-23T08:18:27.687Z,100584.94
2022-12-23T08:20:57.046Z,100584.94
2022-12-23T08:23:26.275Z,100591.78
2022-12-23T08:26:01.088Z,100588.34
2022-12-23T08:28:29.380Z,100596.88
2022-12-23T08:31:03.611Z,100601.16
2022-12-23T08:33:33.308Z,100613.06
2022-12-23T08:36:01.162Z,100616.50
2022-12-23T08:38:29.127Z,100626.72
2022-12-23T08:40:57.134Z,100626.72
2022-12-23T08:43:27.713Z,100627.56
2022-12-23T08:45:59.787Z,100631.88
2022-12-23T08:48:27.634Z,100626.72
2022-12-23T08:50:56.887Z,100631.84
2022-12-23T08:53:24.726Z,100629.28
2022-12-23T08:55:52.633Z,100634.41
2022-12-23T08:58:20.490Z,100633.53
2022-12-23T09:00:48.464Z,100637.78
2022-12-23T09:03:16.428Z,100643.78
2022-12-23T09:05:44.417Z,100642.06
2022-12-23T09:08:13.646Z,100645.47
2022-12-23T09:10:43.285Z,100648.03
2022-12-23T09:13:16.287Z,100642.06
2022-12-23T09:15:48.017Z,100653.16
2022-12-23T09:18:15.959Z,100643.75
2022-12-23T09:20:43.900Z,100649.75
2022-12-23T09:23:13.138Z,100647.19
2022-12-23T09:25:40.991Z,100644.63
2022-12-23T09:28:08.842Z,100644.59
2022-12-23T09:30:36.739Z,100653.13
2022-12-23T09:33:04.787Z,100649.69
2022-12-23T09:35:33.345Z,100653.13
2022-12-23T09:38:01.184Z,100642.91
2022-12-23T09:40:31.894Z,100643.75
2022-12-23T09:43:11.203Z,100650.56
2022-12-23T09:46:00.099Z,100653.13
2022-12-23T09:48:34.126Z,100652.25
2022-12-23T09:51:03.828Z,100665.91
2022-12-23T09:53:45.623Z,100675.28
2022-12-23T09:56:23.844Z,100682.94
2022-12-23T09:59:02.783Z,100685.47
2022-12-23T10:01:41.461Z,100697.47
2022-12-23T10:04:42.483Z,100700.00
2022-12-23T10:07:28.548Z,100712.81
2022-12-23T10:09:58.725Z,100714.50
2022-12-23T10:12:40.122Z,100709.34
2022-12-23T10:15:20.564Z,100729.03
2022-12-23T10:17:53.628Z,100724.75
2022-12-23T10:20:30.990Z,100737.59
2022-12-23T10:23:00.863Z,100724.75
2022-12-23T10:25:35.771Z,100725.63
2022-12-23T10:28:11.236Z,100723.06
2022-12-23T10:31:05.728Z,100725.63
2022-12-23T10:33:37.610Z,100724.78
2022-12-23T10:36:10.805Z,100726.47
2022-12-23T10:38:51.947Z,100731.59
2022-12-23T10:41:29.456Z,100735.03
2022-12-23T10:44:26.305Z,100736.72
2022-12-23T10:47:06.445Z,100738.38
2022-12-23T10:49:44.775Z,100733.25
2022-12-23T10:52:16.721Z,100747.78
2022-12-23T10:54:47.508Z,100755.47
2022-12-23T10:57:17.623Z,100766.56
2022-12-23T10:59:47.153Z,100779.34
2022-12-23T11:02:45.529Z,100786.19
2022-12-23T11:05:16.793Z,100802.38
2022-12-23T11:07:46.715Z,100816.91
2022-12-23T11:13:11.912Z,100834.81
2022-12-23T11:15:42.390Z,100849.34
2022-12-23T11:18:19.095Z,100853.59
2022-12-23T11:21:03.801Z,100859.59
2022-12-23T11:23:33.728Z,100857.84
2022-12-23T11:26:04.228Z,100868.16
2022-12-23T11:28:33.577Z,100862.13
2022-12-23T11:31:08.612Z,100862.13
2022-12-23T11:33:40.035Z,100860.44
2022-12-23T11:36:15.396Z,100855.28
2022-12-23T11:38:50.929Z,100850.19
2022-12-23T11:41:21.913Z,100845.88
2022-12-23T11:43:57.480Z,100846.72
2022-12-23T11:46:29.387Z,100852.72
2022-12-23T11:49:15.145Z,100852.72
2022-12-23T11:51:43.595Z,100871.53
2022-12-23T11:54:18.004Z,100861.25
2022-12-23T11:56:49.576Z,100874.06
2022-12-23T11:59:29.670Z,100878.34
2022-12-23T12:02:00.855Z,100880.88
2022-12-23T12:04:32.736Z,100889.44
2022-12-23T12:07:02.000Z,100894.56
2022-12-23T12:09:32.101Z,100898.00
2022-12-23T12:12:05.625Z,100901.41
2022-12-23T12:14:41.750Z,100905.66
2022-12-23T12:17:19.321Z,100903.06
2022-12-23T12:19:57.536Z,100915.06
2022-12-23T12:25:38.079Z,100920.19
2022-12-23T12:28:13.590Z,100921.88
2022-12-23T12:30:47.869Z,100927.84
2022-12-23T12:33:23.989Z,100936.38
2022-12-23T12:36:04.944Z,100943.25
2022-12-23T12:38:35.088Z,100945.81
2022-12-23T12:41:19.901Z,100949.22
2022-12-23T12:43:53.699Z,100936.41
2022-12-23T12:46:29.909Z,100935.53
2022-12-23T12:49:06.694Z,100918.44
2022-12-23T12:51:41.776Z,100902.19
2022-12-23T12:54:22.387Z,100908.22
2022-12-23T12:56:53.428Z,100906.50
2022-12-23T12:59:23.512Z,100901.34
2022-12-23T13:02:05.216Z,100897.09
2022-12-23T13:05:11.647Z,100890.25
2022-12-23T13:07:55.060Z,100878.28
2022-12-23T13:10:52.655Z,100869.78
2022-12-23T13:13:33.160Z,100858.63
2022-12-23T13:16:09.304Z,100856.94
2022-12-23T13:18:45.939Z,100851.81
2022-12-23T13:21:25.367Z,100847.56
2022-12-23T13:24:04.145Z,100836.47
2022-12-23T13:26:45.728Z,100813.38
2022-12-23T13:29:45.155Z,100812.56
2022-12-23T13:32:22.939Z,100819.41
2022-12-23T13:35:02.615Z,100804.84
2022-12-23T13:37:37.979Z,100807.41
2022-12-23T13:40:18.060Z,100800.59
2022-12-23T13:42:51.212Z,100786.06
2022-12-23T13:45:21.274Z,100776.69
2022-12-23T13:48:05.565Z,100767.28
2022-12-23T13:50:39.605Z,100754.50
2022-12-23T13:53:22.541Z,100740.81
2022-12-23T13:56:03.095Z,100729.72
2022-12-23T13:58:32.983Z,100720.31
2022-12-23T14:01:23.067Z,100716.94
2022-12-23T14:03:51.108Z,100714.38
2022-12-23T14:06:44.040Z,100705.84
2022-12-23T14:09:17.187Z,100695.56
2022-12-23T14:11:45.885Z,100691.31
2022-12-23T14:14:21.373Z,100685.38
2022-12-23T14:17:00.892Z,100673.41
2022-12-23T14:19:44.795Z,100669.13
2022-12-23T14:22:34.465Z,100664.88
2022-12-23T14:25:33.279Z,100645.22
2022-12-23T14:28:08.932Z,100640.16
2022-12-23T14:30:41.388Z,100625.59
2022-12-23T14:33:15.845Z,100611.13
2022-12-23T14:36:22.632Z,100598.34
2022-12-23T14:39:24.018Z,100591.53
2022-12-23T14:41:55.676Z,100581.28
2022-12-23T14:44:46.819Z,100568.50
2022-12-23T14:47:32.898Z,100551.41
2022-12-23T14:50:34.272Z,100547.19
2022-12-23T14:53:03.534Z,100535.22
2022-12-23T14:55:47.732Z,100537.81
2022-12-23T14:58:44.359Z,100536.09
2022-12-23T15:01:16.038Z,100539.50
2022-12-23T15:03:47.987Z,100536.06
2022-12-23T15:06:24.665Z,100532.66
2022-12-23T15:08:55.143Z,100524.13
2022-12-23T15:11:26.688Z,100518.19
2022-12-23T15:13:58.050Z,100516.47
2022-12-23T15:16:34.862Z,100505.38
2022-12-23T15:19:13.982Z,100503.69
2022-12-23T15:21:43.212Z,100493.47
2022-12-23T15:24:16.774Z,100480.69
2022-12-23T15:27:24.691Z,100475.53
2022-12-23T15:29:47.309Z,100469.59
2022-12-23T15:32:15.291Z,100466.19
2022-12-23T15:34:43.417Z,100463.63
2022-12-23T15:37:13.102Z,100460.22
2022-12-23T15:39:43.721Z,100450.81
2022-12-23T15:42:26.194Z,100445.72
2022-12-23T15:44:55.460Z,100433.78
2022-12-23T15:47:30.177Z,100422.72
2022-12-23T15:50:00.183Z,100422.72
2022-12-23T15:52:30.420Z,100410.81
2022-12-23T15:55:03.691Z,100410.81
2022-12-23T15:57:32.352Z,100403.94
2022-12-23T16:00:01.896Z,100401.38
2022-12-23T16:05:27.746Z,100387.78
2022-12-23T16:08:10.586Z,100385.25
2022-12-23T16:10:38.612Z,100389.50
2022-12-23T16:13:14.813Z,100385.22
2022-12-23T16:15:44.319Z,100382.66
2022-12-23T16:18:13.231Z,100376.69
2022-12-23T16:20:45.087Z,100385.22
2022-12-23T16:23:14.111Z,100388.63
2022-12-23T16:25:50.525Z,100386.06
2022-12-23T16:28:23.964Z,100390.34
2022-12-23T16:30:55.637Z,100383.50
2022-12-23T16:33:34.962Z,100374.94
2022-12-23T16:36:19.325Z,100385.22
2022-12-23T16:38:47.660Z,100367.28
2022-12-23T16:41:15.817Z,100367.28
2022-12-23T16:43:51.600Z,100366.44
2022-12-23T16:46:24.011Z,100367.31
2022-12-23T16:48:55.587Z,100357.94
2022-12-23T16:51:24.514Z,100347.72
2022-12-23T16:53:55.072Z,100347.72
2022-12-23T16:56:25.026Z,100350.31
2022-12-23T16:58:52.861Z,100345.16
2022-12-23T17:01:24.633Z,100347.72
2022-12-23T17:03:53.484Z,100342.59
2022-12-23T17:06:21.646Z,100342.63
2022-12-23T17:08:50.497Z,100343.47
2022-12-23T17:14:17.557Z,100354.50
2022-12-23T17:16:47.550Z,100349.38
2022-12-23T17:19:15.674Z,100346.84
2022-12-23T17:21:45.203Z,100345.16
2022-12-23T17:24:18.204Z,100346.00
2022-12-23T17:26:46.072Z,100332.34
2022-12-23T17:29:14.084Z,100328.94
2022-12-23T17:31:43.287Z,100339.16
2022-12-23T17:34:16.937Z,100334.03
2022-12-23T17:36:49.895Z,100333.19
2022-12-23T17:39:18.505Z,100327.22
2022-12-23T17:41:46.897Z,100322.97
2022-12-23T17:44:16.100Z,100328.09
2022-12-23T17:46:45.474Z,100329.78
2022-12-23T17:49:14.762Z,100329.78
2022-12-23T17:51:43.427Z,100332.34
2022-12-23T17:54:25.061Z,100323.81
2022-12-23T17:56:53.277Z,100317.88
2022-12-23T17:59:21.462Z,100310.19
2022-12-23T18:01:50.242Z,100323.81
2022-12-23T18:04:20.532Z,100331.50
2022-12-23T18:06:48.445Z,100334.03
2022-12-23T18:09:16.742Z,100336.56
2022-12-23T18:11:47.619Z,100340.81
2022-12-23T18:14:18.542Z,100339.09
2022-12-23T18:16:52.227Z,100343.34
2022-12-23T18:19:22.486Z,100345.06
2022-12-23T18:21:51.210Z,100343.38
2022-12-23T18:24:19.411Z,100354.47
2022-12-23T18:26:47.543Z,100354.47
2022-12-23T18:29:15.466Z,100351.06
2022-12-23T18:31:51.580Z,100347.66
2022-12-23T18:34:21.845Z,100350.22
2022-12-23T18:36:51.553Z,100349.34
2022-12-23T18:39:19.923Z,100351.06
2022-12-23T18:41:47.813Z,100355.31
2022-12-23T18:44:18.225Z,100346.78
2022-12-23T18:46:46.150Z,100354.47
2022-12-23T18:49:14.068Z,100354.44
2022-12-23T18:51:43.317Z,100355.28
2022-12-23T18:54:15.139Z,100355.28
2022-12-23T18:56:43.121Z,100353.56
2022-12-23T18:59:20.072Z,100354.44
2022-12-23T19:01:50.758Z,100352.72
2022-12-23T19:04:18.685Z,100359.53
2022-12-23T19:06:47.919Z,100356.09
2022-12-23T19:09:18.145Z,100361.22
2022-12-23T19:11:48.347Z,100360.38
2022-12-23T19:14:16.421Z,100351.84
2022-12-23T19:16:50.960Z,100352.69
2022-12-23T19:19:19.962Z,100356.13
2022-12-23T19:21:49.376Z,100349.28
2022-12-23T19:24:17.211Z,100353.56
2022-12-23T19:26:45.096Z,100351.84
2022-12-23T19:29:12.903Z,100354.41
2022-12-23T19:31:40.768Z,100352.69
2022-12-23T19:34:14.619Z,100349.28
2022-12-23T19:36:43.610Z,100373.13
2022-12-23T19:39:16.156Z,100381.66
2022-12-23T19:41:47.255Z,100385.06
2022-12-23T19:44:15.194Z,100397.81
2022-12-23T19:46:43.194Z,100416.56
2022-12-23T19:49:17.493Z,100462.59
2022-12-23T19:51:47.710Z,100558.91
2022-12-23T19:54:17.030Z,100658.66
2022-12-23T19:56:45.309Z,100720.13
2022-12-23T19:59:13.553Z,100753.38
2022-12-23T20:01:41.416Z,100774.72
2022-12-23T20:04:10.888Z,100799.50
2022-12-23T20:06:40.298Z,100819.97
2022-12-23T20:09:09.192Z,100819.09
2022-12-23T20:11:40.629Z,100815.69
2022-12-23T20:14:09.706Z,100825.09
2022-12-23T20:16:39.063Z,100837.06
2022-12-23T20:19:07.865Z,100849.00
2022-12-23T20:21:37.391Z,100875.47
2022-12-23T20:24:05.793Z,100900.28
2022-12-23T20:26:34.055Z,100907.94
2022-12-23T20:29:03.229Z,100921.63
2022-12-23T20:31:33.404Z,100941.25
2022-12-23T20:34:02.308Z,100956.69
2022-12-23T20:36:31.878Z,100969.47
2022-12-23T20:39:00.263Z,100983.16
2022-12-23T20:41:29.699Z,100987.41
2022-12-23T20:44:32.593Z,101002.81
2022-12-23T20:46:47.181Z,100998.53
2022-12-23T20:49:15.069Z,101001.97
2022-12-23T20:51:42.962Z,100992.53
2022-12-23T20:54:10.833Z,101011.34
2022-12-23T20:56:38.643Z,101001.94
2022-12-23T20:59:06.504Z,101012.19
2022-12-23T21:01:36.571Z,101021.59
2022-12-23T21:04:08.268Z,101022.44
2022-12-23T21:06:36.683Z,101024.13
2022-12-23T21:09:06.751Z,101025.88
2022-12-23T21:11:59.803Z,101029.28
2022-12-23T21:14:27.801Z,101030.13
2022-12-23T21:16:55.829Z,101025.03
2022-12-23T21:19:26.569Z,101025.03
2022-12-23T21:21:54.754Z,101014.72
2022-12-23T21:24:22.562Z,101013.00
2022-12-23T21:26:56.459Z,101013.03
2022-12-23T21:29:25.303Z,100997.63
2022-12-23T21:31:53.216Z,101001.91
2022-12-23T21:34:21.180Z,100993.34
2022-12-23T21:36:50.478Z,100995.94
2022-12-23T21:39:18.396Z,100986.53
2022-12-23T21:41:46.261Z,100985.66
2022-12-23T21:44:14.914Z,100987.38
2022-12-23T21:46:42.951Z,100981.38
2022-12-23T21:49:11.434Z,100983.09
2022-12-23T21:51:41.025Z,100983.09
2022-12-23T21:54:11.789Z,100983.97
2022-12-23T21:56:40.885Z,100978.81
2022-12-23T21:59:11.704Z,100975.38
2022-12-23T22:01:40.913Z,100979.66
2022-12-23T22:04:08.818Z,100976.25
2022-12-23T22:06:38.493Z,100963.44
2022-12-23T22:09:07.618Z,100960.88
2022-12-23T22:11:38.208Z,100955.75
2022-12-23T22:14:08.166Z,100943.75
2022-12-23T22:16:36.847Z,100937.78
2022-12-23T22:19:06.094Z,100930.13
2022-12-23T22:21:35.270Z,100907.00
2022-12-23T22:24:04.379Z,100901.91
2022-12-23T22:26:33.652Z,100888.22
2022-12-23T22:29:05.013Z,100884.81
2022-12-23T22:31:36.998Z,100895.91
2022-12-23T22:34:05.669Z,100927.53
2022-12-23T22:36:34.357Z,100955.72
2022-12-23T22:39:27.845Z,100994.19
2022-12-23T22:41:55.667Z,101005.28
2022-12-23T22:44:24.851Z,101018.13
2022-12-23T22:46:52.791Z,101011.28
2022-12-23T22:49:20.637Z,101020.66
2022-12-23T22:51:48.471Z,101021.53
2022-12-23T22:54:16.306Z,101014.69
2022-12-23T22:56:45.743Z,101014.69
2022-12-23T22:59:21.043Z,101015.56
2022-12-23T23:01:51.718Z,101006.97
2022-12-23T23:06:39.418Z,100995.84
2022-12-23T23:09:08.772Z,101001.88
2022-12-23T23:11:37.042Z,101001.88
2022-12-23T23:16:56.778Z,100995.03
2022-12-23T23:19:24.660Z,100992.44
2022-12-23T23:21:54.503Z,100989.03
2022-12-23T23:24:27.733Z,100995.03
2022-12-23T23:26:58.799Z,100989.03
2022-12-23T23:29:26.652Z,100985.63
2022-12-23T23:31:54.463Z,100979.63
2022-12-23T23:34:22.437Z,100974.47
2022-12-23T23:36:50.350Z,100971.94
2022-12-23T23:39:19.638Z,100972.81
2022-12-23T23:41:47.425Z,100960.81
2022-12-23T23:44:15.246Z,100959.09
2022-12-23T23:46:43.049Z,100952.25
2022-12-23T23:49:11.187Z,100965.09
2022-12-23T23:51:39.199Z,100958.25
2022-12-23T23:54:08.382Z,100947.94
2022-12-23T23:56:39.144Z,100949.69
2022-12-23T23:59:08.426Z,100955.66
